createdAt,value
2023-02-04T00:00:23.084Z,4.37
2023-02-04T00:02:53.442Z,5.00
2023-02-04T00:05:21.817Z,4.27
2023-02-04T00:07:49.015Z,4.37
2023-02-04T00:10:16.230Z,4.13
2023-02-04T00:12:43.281Z,4.27
2023-02-04T00:15:10.880Z,4.00
2023-02-04T00:17:43.762Z,4.17
2023-02-04T00:20:11.041Z,3.67
2023-02-04T00:22:38.194Z,4.33
2023-02-04T00:25:05.433Z,4.53
2023-02-04T00:27:32.529Z,4.00
2023-02-04T00:29:59.670Z,4.17
2023-02-04T00:32:26.846Z,3.80
2023-02-04T00:34:53.871Z,5.23
2023-02-04T00:37:21.032Z,4.97
2023-02-04T00:39:48.097Z,4.70
2023-02-04T00:42:15.271Z,6.13
2023-02-04T00:44:42.401Z,4.40
2023-02-04T00:47:09.515Z,4.53
2023-02-04T00:49:36.648Z,4.57
2023-02-04T00:52:03.780Z,4.60
2023-02-04T00:54:30.609Z,3.73
2023-02-04T00:56:57.525Z,4.23
2023-02-04T00:59:24.993Z,4.03
2023-02-04T01:01:52.171Z,5.13
2023-02-04T01:04:19.281Z,5.13
2023-02-04T01:06:46.391Z,4.60
2023-02-04T01:09:13.222Z,4.83
2023-02-04T01:11:40.337Z,4.53
2023-02-04T01:14:07.482Z,4.53
2023-02-04T01:16:34.207Z,5.33
2023-02-04T01:19:01.404Z,4.60
2023-02-04T01:21:28.200Z,4.30
2023-02-04T01:23:55.050Z,5.07
2023-02-04T01:26:26.137Z,4.50
2023-02-04T01:28:52.855Z,3.77
2023-02-04T01:31:20.207Z,4.30
2023-02-04T01:33:46.971Z,4.23
2023-02-04T01:36:14.099Z,4.57
2023-02-04T01:38:40.752Z,4.30
2023-02-04T01:41:08.012Z,4.80
2023-02-04T01:43:34.823Z,4.57
2023-02-04T01:46:02.656Z,4.17
2023-02-04T01:48:29.914Z,4.90
2023-02-04T01:51:05.112Z,3.57
2023-02-04T01:53:32.632Z,4.30
2023-02-04T01:55:59.837Z,5.47
2023-02-04T01:58:26.967Z,4.17
2023-02-04T02:00:54.386Z,5.17
2023-02-04T02:03:21.503Z,4.10
2023-02-04T02:05:53.726Z,4.00
2023-02-04T02:08:20.886Z,4.20
2023-02-04T02:10:49.814Z,4.97
2023-02-04T02:13:18.725Z,4.97
2023-02-04T02:15:45.892Z,4.40
2023-02-04T02:18:13.033Z,4.37
2023-02-04T02:20:40.199Z,4.60
2023-02-04T02:23:23.887Z,4.60
2023-02-04T02:25:51.260Z,4.17
2023-02-04T02:28:21.159Z,4.10
2023-02-04T02:30:49.713Z,4.37
2023-02-04T02:33:19.612Z,4.40
2023-02-04T02:35:50.594Z,4.77
2023-02-04T02:38:19.210Z,4.73
2023-02-04T02:40:46.634Z,3.70
2023-02-04T02:43:21.393Z,4.50
2023-02-04T02:45:49.339Z,4.37
2023-02-04T02:48:16.526Z,4.00
2023-02-04T02:50:43.865Z,4.03
2023-02-04T02:53:12.831Z,4.17
2023-02-04T02:55:40.502Z,4.00
2023-02-04T02:58:24.317Z,4.13
2023-02-04T03:00:51.592Z,4.13
2023-02-04T03:03:22.713Z,4.13
2023-02-04T03:05:53.257Z,4.23
2023-02-04T03:08:20.593Z,3.83
2023-02-04T03:10:48.093Z,4.37
2023-02-04T03:13:16.555Z,4.77
2023-02-04T03:15:45.279Z,4.17
2023-02-04T03:18:13.794Z,4.20
2023-02-04T03:20:41.224Z,3.90
2023-02-04T03:23:08.137Z,3.87
2023-02-04T03:25:35.304Z,4.10
2023-02-04T03:28:02.083Z,3.67
2023-02-04T03:30:29.579Z,3.77
2023-02-04T03:32:56.932Z,4.00
2023-02-04T03:35:23.819Z,5.17
2023-02-04T03:37:51.003Z,4.10
2023-02-04T03:40:17.867Z,4.00
2023-02-04T03:42:44.934Z,4.10
2023-02-04T03:45:12.109Z,3.70
2023-02-04T03:47:39.261Z,3.97
2023-02-04T03:50:06.614Z,3.97
2023-02-04T03:52:33.398Z,4.13
2023-02-04T03:55:00.509Z,3.90
2023-02-04T03:57:27.265Z,3.67
2023-02-04T03:59:54.346Z,4.10
2023-02-04T04:02:21.077Z,4.13
2023-02-04T04:04:47.751Z,3.90
2023-02-04T04:07:14.835Z,3.60
2023-02-04T04:09:41.925Z,3.10
2023-02-04T04:12:09.076Z,3.97
2023-02-04T04:14:35.907Z,3.40
2023-02-04T04:17:02.705Z,3.47
2023-02-04T04:19:32.117Z,3.67
2023-02-04T04:21:59.005Z,3.93
2023-02-04T04:24:25.671Z,4.23
2023-02-04T04:26:52.352Z,3.70
2023-02-04T04:29:18.986Z,3.87
2023-02-04T04:31:46.135Z,4.23
2023-02-04T04:34:13.367Z,4.03
2023-02-04T04:36:40.530Z,4.00
2023-02-04T04:39:07.627Z,4.00
2023-02-04T04:41:34.785Z,4.97
2023-02-04T04:44:01.953Z,4.27
2023-02-04T04:46:29.051Z,3.80
2023-02-04T04:48:55.778Z,3.70
2023-02-04T04:51:22.927Z,3.60
2023-02-04T04:53:49.657Z,4.23
2023-02-04T04:56:16.315Z,3.80
2023-02-04T04:58:43.414Z,3.40
2023-02-04T05:01:10.501Z,3.43
2023-02-04T05:03:37.661Z,3.83
2023-02-04T05:06:04.420Z,3.90
2023-02-04T05:08:31.504Z,3.87
2023-02-04T05:10:58.586Z,4.00
2023-02-04T05:13:25.363Z,3.80
2023-02-04T05:15:52.448Z,3.93
2023-02-04T05:18:19.131Z,3.80
2023-02-04T05:20:46.231Z,4.37
2023-02-04T05:23:13.327Z,4.30
2023-02-04T05:25:40.475Z,4.57
2023-02-04T05:28:07.291Z,3.93
2023-02-04T05:30:34.484Z,4.00
2023-02-04T05:33:01.765Z,3.93
2023-02-04T05:35:28.826Z,3.93
2023-02-04T05:37:55.488Z,3.93
2023-02-04T05:40:22.875Z,3.70
2023-02-04T05:42:49.562Z,3.90
2023-02-04T05:45:17.055Z,3.50
2023-02-04T05:47:43.793Z,3.97
2023-02-04T05:50:11.144Z,3.87
2023-02-04T05:52:38.001Z,3.90
2023-02-04T05:55:05.156Z,3.53
2023-02-04T05:57:32.302Z,3.90
2023-02-04T05:59:59.370Z,3.70
2023-02-04T06:02:26.454Z,4.47
2023-02-04T06:04:53.566Z,4.17
2023-02-04T06:07:20.689Z,3.87
2023-02-04T06:09:47.408Z,4.00
2023-02-04T06:12:14.497Z,3.33
2023-02-04T06:14:41.220Z,4.07
2023-02-04T06:17:07.882Z,3.47
2023-02-04T06:19:34.984Z,3.80
2023-02-04T06:22:02.063Z,4.17
2023-02-04T06:24:29.165Z,3.53
2023-02-04T06:26:55.851Z,3.60
2023-02-04T06:29:22.992Z,4.30
2023-02-04T06:31:49.862Z,4.07
2023-02-04T06:34:16.666Z,4.63
2023-02-04T06:36:43.810Z,3.97
2023-02-04T06:39:10.497Z,4.20
2023-02-04T06:41:37.292Z,4.73
2023-02-04T06:44:04.450Z,4.50
2023-02-04T06:46:31.694Z,4.33
2023-02-04T06:49:01.072Z,3.80
2023-02-04T06:51:28.282Z,4.50
2023-02-04T06:53:54.927Z,4.00
2023-02-04T06:56:21.616Z,5.00
2023-02-04T06:58:48.734Z,4.20
2023-02-04T07:01:15.410Z,4.37
2023-02-04T07:03:42.132Z,3.63
2023-02-04T07:06:09.227Z,3.80
2023-02-04T07:08:35.875Z,4.20
2023-02-04T07:11:02.524Z,4.50
2023-02-04T07:13:29.623Z,4.27
2023-02-04T07:15:56.791Z,4.67
2023-02-04T07:18:23.770Z,5.23
2023-02-04T07:20:50.465Z,5.07
2023-02-04T07:23:17.535Z,4.40
2023-02-04T07:25:44.229Z,5.17
2023-02-04T07:28:11.412Z,4.43
2023-02-04T07:30:38.596Z,4.03
2023-02-04T07:33:05.773Z,4.63
2023-02-04T07:35:32.507Z,4.03
2023-02-04T07:37:59.546Z,4.97
2023-02-04T07:40:26.680Z,4.73
2023-02-04T07:42:53.853Z,4.77
2023-02-04T07:45:20.923Z,4.47
2023-02-04T07:47:47.650Z,4.63
2023-02-04T07:50:14.816Z,5.33
2023-02-04T07:52:42.125Z,5.43
2023-02-04T07:55:09.690Z,4.70
2023-02-04T07:57:36.374Z,5.60
2023-02-04T08:00:03.516Z,4.93
2023-02-04T08:02:30.622Z,4.87
2023-02-04T08:04:57.754Z,4.87
2023-02-04T08:07:24.839Z,4.70
2023-02-04T08:09:51.953Z,4.60
2023-02-04T08:12:18.673Z,4.77
2023-02-04T08:14:45.742Z,5.17
2023-02-04T08:17:12.382Z,4.23
2023-02-04T08:19:39.467Z,5.40
2023-02-04T08:22:06.876Z,5.23
2023-02-04T08:24:33.525Z,4.40
2023-02-04T08:27:00.625Z,5.80
2023-02-04T08:29:27.716Z,4.40
2023-02-04T08:31:54.931Z,4.90
2023-02-04T08:34:21.711Z,4.87
2023-02-04T08:36:48.802Z,4.97
2023-02-04T08:39:15.966Z,5.60
2023-02-04T08:41:43.050Z,4.87
2023-02-04T08:44:10.107Z,4.73
2023-02-04T08:46:37.341Z,5.03
2023-02-04T08:49:04.228Z,5.33
2023-02-04T08:51:30.948Z,5.80
2023-02-04T08:53:58.059Z,5.50
2023-02-04T08:56:25.138Z,5.90
2023-02-04T08:58:52.900Z,5.50
2023-02-04T09:01:20.322Z,7.23
2023-02-04T09:03:47.533Z,5.67
2023-02-04T09:06:14.678Z,5.77
2023-02-04T09:08:41.336Z,5.47
2023-02-04T09:11:10.803Z,5.13
2023-02-04T09:13:37.945Z,5.40
2023-02-04T09:16:05.156Z,6.07
2023-02-04T09:18:32.783Z,6.03
2023-02-04T09:20:59.594Z,6.50
2023-02-04T09:23:26.746Z,6.13
2023-02-04T09:25:54.001Z,5.80
2023-02-04T09:28:21.172Z,5.33
2023-02-04T09:30:47.963Z,7.07
2023-02-04T09:33:16.896Z,6.63
2023-02-04T09:35:45.028Z,6.53
2023-02-04T09:38:11.679Z,5.87
2023-02-04T09:40:43.726Z,6.17
2023-02-04T09:43:14.312Z,6.10
2023-02-04T09:45:42.049Z,6.07
2023-02-04T09:48:13.111Z,5.93
2023-02-04T09:50:40.297Z,5.97
2023-02-04T09:53:08.322Z,6.63
2023-02-04T09:55:38.362Z,6.67
2023-02-04T09:58:19.036Z,6.97
2023-02-04T10:00:47.082Z,6.93
2023-02-04T10:03:19.451Z,7.07
2023-02-04T10:05:47.350Z,6.90
2023-02-04T10:08:27.896Z,7.73
2023-02-04T10:10:56.765Z,7.10
2023-02-04T10:13:28.669Z,7.40
2023-02-04T10:15:55.738Z,7.37
2023-02-04T10:18:41.029Z,7.93
2023-02-04T10:21:26.916Z,7.30
2023-02-04T10:23:55.389Z,7.23
2023-02-04T10:26:22.976Z,8.87
2023-02-04T10:28:50.089Z,8.80
2023-02-04T10:31:28.415Z,8.53
2023-02-04T10:34:10.921Z,9.73
2023-02-04T10:36:38.399Z,10.20
2023-02-04T10:39:26.733Z,9.07
2023-02-04T10:41:54.677Z,10.07
2023-02-04T10:44:33.702Z,9.10
2023-02-04T10:47:09.539Z,8.03
2023-02-04T10:49:37.270Z,8.33
2023-02-04T10:52:14.330Z,8.30
2023-02-04T10:54:41.389Z,9.30
2023-02-04T10:57:15.645Z,8.60
2023-02-04T10:59:42.767Z,8.37
2023-02-04T11:02:32.525Z,8.80
2023-02-04T11:04:59.828Z,8.80
2023-02-04T11:07:27.048Z,8.87
2023-02-04T11:09:54.080Z,8.73
2023-02-04T11:12:22.324Z,9.13
2023-02-04T11:14:56.051Z,10.03
2023-02-04T11:17:30.571Z,10.40
2023-02-04T11:19:57.813Z,10.13
2023-02-04T11:22:37.062Z,10.33
2023-02-04T11:25:04.181Z,12.30
2023-02-04T11:27:39.167Z,10.07
2023-02-04T11:30:08.554Z,10.97
2023-02-04T11:32:37.957Z,12.00
2023-02-04T11:35:11.192Z,10.90
2023-02-04T11:37:40.906Z,12.67
2023-02-04T11:40:28.286Z,11.57
2023-02-04T11:42:59.630Z,10.13
2023-02-04T11:45:32.334Z,10.13
2023-02-04T11:48:01.561Z,11.43
2023-02-04T11:50:33.254Z,12.00
2023-02-04T11:53:04.689Z,9.63
2023-02-04T11:55:34.862Z,11.80
2023-02-04T11:58:02.094Z,11.60
2023-02-04T12:00:33.479Z,10.10
2023-02-04T12:03:02.101Z,9.13
2023-02-04T12:05:47.785Z,9.90
2023-02-04T12:08:26.085Z,9.10
2023-02-04T12:10:59.160Z,7.43
2023-02-04T12:13:26.663Z,9.37
2023-02-04T12:15:59.597Z,7.93
2023-02-04T12:18:29.870Z,8.30
2023-02-04T12:20:57.515Z,7.77
2023-02-04T12:23:25.353Z,9.20
2023-02-04T12:25:52.510Z,9.23
2023-02-04T12:28:19.703Z,9.03
2023-02-04T12:30:46.716Z,10.17
2023-02-04T12:33:15.053Z,10.83
2023-02-04T12:35:42.742Z,9.67
2023-02-04T12:38:10.467Z,9.43
2023-02-04T12:40:38.018Z,8.23
2023-02-04T12:43:04.974Z,9.00
2023-02-04T12:45:32.502Z,8.30
2023-02-04T12:47:59.800Z,8.77
2023-02-04T12:50:26.917Z,8.87
2023-02-04T12:52:55.763Z,9.20
2023-02-04T12:55:26.860Z,8.77
2023-02-04T12:57:53.973Z,9.53
2023-02-04T13:00:21.620Z,8.57
2023-02-04T13:02:49.037Z,9.27
2023-02-04T13:05:16.583Z,8.40
2023-02-04T13:07:43.400Z,8.70
2023-02-04T13:10:10.571Z,8.03
2023-02-04T13:12:37.725Z,8.73
2023-02-04T13:15:04.960Z,8.30
2023-02-04T13:17:31.848Z,8.77
2023-02-04T13:19:58.594Z,10.03
2023-02-04T13:22:25.827Z,8.00
2023-02-04T13:24:52.780Z,8.70
2023-02-04T13:27:19.905Z,7.97
2023-02-04T13:29:46.617Z,7.67
2023-02-04T13:32:13.338Z,9.20
2023-02-04T13:34:40.448Z,12.07
2023-02-04T13:37:07.135Z,9.03
2023-02-04T13:39:33.872Z,8.97
2023-02-04T13:42:00.932Z,9.90
2023-02-04T13:44:27.641Z,12.30
2023-02-04T13:46:54.713Z,11.17
2023-02-04T13:49:21.642Z,9.50
2023-02-04T13:51:48.308Z,11.23
2023-02-04T13:54:15.457Z,10.83
2023-02-04T13:56:42.145Z,9.53
2023-02-04T13:59:09.243Z,9.47
2023-02-04T14:01:35.978Z,8.80
2023-02-04T14:04:03.388Z,9.20
2023-02-04T14:06:34.312Z,8.57
2023-02-04T14:09:01.979Z,9.37
2023-02-04T14:11:29.039Z,8.27
2023-02-04T14:13:55.885Z,8.47
2023-02-04T14:16:22.667Z,8.20
2023-02-04T14:18:49.892Z,7.43
2023-02-04T14:21:16.722Z,8.50
2023-02-04T14:23:43.381Z,7.00
2023-02-04T14:26:10.486Z,6.90
2023-02-04T14:28:37.600Z,7.23
2023-02-04T14:31:04.763Z,8.17
2023-02-04T14:33:31.446Z,8.60
2023-02-04T14:35:58.517Z,8.77
2023-02-04T14:38:30.729Z,9.73
2023-02-04T14:41:00.544Z,9.37
2023-02-04T14:43:27.776Z,10.70
2023-02-04T14:45:54.542Z,11.17
2023-02-04T14:48:21.760Z,10.33
2023-02-04T14:50:48.451Z,10.27
2023-02-04T14:53:15.509Z,8.37
2023-02-04T14:55:42.579Z,7.97
2023-02-04T14:58:09.769Z,9.47
2023-02-04T15:00:36.838Z,10.63
2023-02-04T15:03:04.021Z,8.73
2023-02-04T15:05:30.740Z,8.50
2023-02-04T15:07:57.412Z,8.33
2023-02-04T15:10:25.127Z,9.20
2023-02-04T15:12:52.487Z,9.27
2023-02-04T15:15:19.209Z,9.40
2023-02-04T15:17:45.964Z,8.37
2023-02-04T15:20:13.338Z,7.97
2023-02-04T15:22:40.067Z,8.57
2023-02-04T15:25:07.276Z,7.77
2023-02-04T15:27:34.402Z,7.00
2023-02-04T15:30:01.493Z,7.70
2023-02-04T15:32:28.268Z,8.47
2023-02-04T15:34:54.968Z,8.27
2023-02-04T15:37:21.966Z,8.13
2023-02-04T15:39:50.825Z,7.97
2023-02-04T15:42:17.903Z,9.43
2023-02-04T15:44:44.571Z,7.77
2023-02-04T15:47:11.255Z,8.40
2023-02-04T15:49:38.316Z,9.70
2023-02-04T15:52:07.142Z,9.23
2023-02-04T15:54:38.223Z,10.27
2023-02-04T15:57:05.281Z,9.93
2023-02-04T15:59:32.423Z,9.87
2023-02-04T16:01:59.513Z,8.40
2023-02-04T16:04:26.235Z,9.30
2023-02-04T16:06:58.451Z,8.50
2023-02-04T16:09:26.190Z,8.80
2023-02-04T16:11:53.271Z,9.93
2023-02-04T16:14:19.966Z,10.27
2023-02-04T16:16:46.660Z,10.07
2023-02-04T16:19:13.700Z,9.00
2023-02-04T16:21:40.879Z,7.53
2023-02-04T16:24:08.381Z,8.47
2023-02-04T16:26:35.042Z,8.17
2023-02-04T16:29:02.148Z,7.87
2023-02-04T16:31:28.996Z,8.03
2023-02-04T16:33:56.218Z,8.40
2023-02-04T16:36:22.914Z,7.80
2023-02-04T16:38:49.656Z,8.30
2023-02-04T16:41:16.816Z,8.57
2023-02-04T16:43:43.448Z,7.87
2023-02-04T16:46:12.242Z,7.30
2023-02-04T16:48:39.123Z,6.40
2023-02-04T16:51:06.322Z,8.40
2023-02-04T16:53:32.978Z,8.93
2023-02-04T16:56:00.061Z,8.33
2023-02-04T16:58:27.147Z,7.23
2023-02-04T17:00:54.579Z,7.00
2023-02-04T17:03:21.708Z,7.63
2023-02-04T17:05:49.714Z,7.83
2023-02-04T17:08:17.363Z,9.50
2023-02-04T17:11:02.889Z,10.97
2023-02-04T17:13:30.052Z,9.93
2023-02-04T17:16:00.978Z,10.03
2023-02-04T17:18:29.785Z,10.60
2023-02-04T17:20:57.215Z,11.07
2023-02-04T17:23:24.332Z,11.63
2023-02-04T17:25:51.140Z,11.27
2023-02-04T17:28:17.951Z,12.43
2023-02-04T17:30:46.098Z,11.33
2023-02-04T17:33:13.211Z,12.30
2023-02-04T17:35:39.840Z,12.17
2023-02-04T17:38:07.004Z,11.40
2023-02-04T17:40:34.157Z,11.70
2023-02-04T17:43:01.402Z,12.53
2023-02-04T17:45:28.477Z,13.23
2023-02-04T17:47:55.545Z,12.17
2023-02-04T17:50:22.715Z,11.60
2023-02-04T17:52:49.941Z,11.00
2023-02-04T17:55:22.312Z,11.33
2023-02-04T17:57:49.971Z,11.10
2023-02-04T18:00:20.326Z,11.13
2023-02-04T18:02:49.080Z,10.57
2023-02-04T18:05:18.808Z,10.30
2023-02-04T18:08:10.470Z,9.53
2023-02-04T18:10:38.972Z,9.10
2023-02-04T18:13:24.096Z,8.80
2023-02-04T18:15:57.868Z,8.50
2023-02-04T18:18:35.851Z,7.90
2023-02-04T18:21:24.661Z,7.73
2023-02-04T18:24:03.043Z,8.23
2023-02-04T18:26:29.790Z,8.43
2023-02-04T18:28:56.936Z,7.70
2023-02-04T18:31:46.507Z,7.47
2023-02-04T18:34:21.235Z,8.23
2023-02-04T18:36:48.540Z,8.63
2023-02-04T18:39:21.141Z,8.20
2023-02-04T18:41:49.953Z,8.23
2023-02-04T18:44:49.124Z,7.80
2023-02-04T18:47:31.362Z,10.40
2023-02-04T18:50:02.441Z,8.23
2023-02-04T18:52:36.676Z,7.67
2023-02-04T18:55:18.319Z,7.07
2023-02-04T18:57:45.500Z,6.67
2023-02-04T19:00:13.879Z,7.93
2023-02-04T19:02:40.965Z,8.20
2023-02-04T19:05:19.975Z,8.20
2023-02-04T19:07:47.046Z,7.73
2023-02-04T19:10:34.047Z,8.20
2023-02-04T19:13:14.374Z,7.17
2023-02-04T19:15:41.514Z,7.47
2023-02-04T19:18:39.532Z,7.70
2023-02-04T19:21:28.462Z,7.37
2023-02-04T19:24:22.021Z,7.17
2023-02-04T19:26:59.483Z,7.00
2023-02-04T19:29:29.404Z,7.43
2023-02-04T19:32:00.101Z,7.30
2023-02-04T19:34:37.382Z,7.20
2023-02-04T19:37:23.899Z,9.17
2023-02-04T19:39:52.105Z,8.50
2023-02-04T19:42:29.747Z,8.43
2023-02-04T19:44:59.956Z,8.13
2023-02-04T19:47:27.059Z,7.23
2023-02-04T19:50:13.475Z,9.27
2023-02-04T19:53:12.852Z,10.57
2023-02-04T19:55:47.876Z,11.33
2023-02-04T19:58:28.610Z,11.33
2023-02-04T20:01:08.287Z,11.47
2023-02-04T20:03:48.706Z,11.80
2023-02-04T20:06:27.264Z,11.87
2023-02-04T20:09:29.149Z,12.20
2023-02-04T20:12:13.947Z,11.87
2023-02-04T20:14:47.214Z,13.53
2023-02-04T20:17:37.406Z,14.53
2023-02-04T20:20:23.107Z,13.37
2023-02-04T20:22:50.956Z,13.93
2023-02-04T20:25:20.906Z,14.20
2023-02-04T20:27:55.287Z,12.83
2023-02-04T20:30:27.622Z,12.63
2023-02-04T20:32:56.963Z,12.37
2023-02-04T20:35:24.011Z,12.13
2023-02-04T20:37:57.655Z,12.33
2023-02-04T20:40:28.957Z,13.23
2023-02-04T20:42:59.852Z,13.13
2023-02-04T20:45:52.667Z,13.13
2023-02-04T20:48:25.020Z,13.17
2023-02-04T20:50:53.707Z,13.67
2023-02-04T20:53:52.340Z,12.37
2023-02-04T20:56:26.627Z,13.10
2023-02-04T20:59:11.617Z,12.83
2023-02-04T21:01:40.457Z,12.60
2023-02-04T21:04:36.951Z,13.10
2023-02-04T21:07:18.688Z,12.80
2023-02-04T21:09:46.299Z,13.10
2023-02-04T21:12:13.403Z,13.43
2023-02-04T21:14:40.525Z,13.23
2023-02-04T21:17:08.013Z,12.90
2023-02-04T21:19:35.397Z,13.37
2023-02-04T21:22:02.207Z,13.20
2023-02-04T21:24:31.855Z,14.20
2023-02-04T21:26:59.027Z,13.80
2023-02-04T21:29:26.104Z,14.00
2023-02-04T21:31:54.397Z,13.90
2023-02-04T21:34:21.636Z,12.50
2023-02-04T21:36:48.742Z,12.80
2023-02-04T21:39:16.012Z,13.17
2023-02-04T21:41:43.110Z,13.57
2023-02-04T21:44:09.748Z,12.50
2023-02-04T21:46:36.883Z,12.90
2023-02-04T21:49:05.234Z,11.27
2023-02-04T21:51:32.402Z,11.90
2023-02-04T21:53:59.953Z,12.03
2023-02-04T21:56:26.711Z,11.80
2023-02-04T21:58:53.931Z,11.23
2023-02-04T22:01:21.029Z,12.73
2023-02-04T22:03:47.739Z,12.07
2023-02-04T22:06:14.868Z,11.20
2023-02-04T22:08:42.002Z,12.67
2023-02-04T22:11:09.126Z,12.13
2023-02-04T22:13:54.289Z,12.00
2023-02-04T22:16:21.467Z,11.93
2023-02-04T22:18:48.217Z,12.10
2023-02-04T22:21:15.389Z,11.97
2023-02-04T22:23:42.056Z,12.47
2023-02-04T22:26:08.945Z,13.90
2023-02-04T22:28:36.017Z,12.10
2023-02-04T22:31:03.206Z,12.80
2023-02-04T22:33:30.372Z,11.63
2023-02-04T22:35:57.458Z,13.50
2023-02-04T22:38:24.556Z,11.57
2023-02-04T22:40:51.255Z,12.20
2023-02-04T22:43:18.437Z,13.10
2023-02-04T22:45:45.132Z,12.53
2023-02-04T22:48:12.212Z,12.50
2023-02-04T22:50:38.873Z,12.67
2023-02-04T22:53:05.525Z,13.07
2023-02-04T22:55:32.997Z,11.30
2023-02-04T22:58:00.275Z,13.90
2023-02-04T23:00:27.470Z,13.60
2023-02-04T23:02:54.558Z,13.07
2023-02-04T23:05:21.632Z,12.53
2023-02-04T23:07:48.407Z,13.23
2023-02-04T23:10:15.593Z,14.37
2023-02-04T23:12:42.680Z,12.20
2023-02-04T23:15:11.972Z,14.47
2023-02-04T23:17:39.027Z,14.87
2023-02-04T23:20:06.376Z,13.77
2023-02-04T23:22:33.105Z,13.80
2023-02-04T23:25:00.184Z,13.53
2023-02-04T23:27:27.365Z,14.13
2023-02-04T23:29:54.425Z,13.40
2023-02-04T23:32:21.528Z,13.63
2023-02-04T23:34:48.685Z,13.33
2023-02-04T23:37:15.420Z,13.23
2023-02-04T23:39:42.110Z,13.00
2023-02-04T23:42:09.294Z,12.27
2023-02-04T23:44:35.965Z,12.90
2023-02-04T23:47:03.392Z,14.30
2023-02-04T23:49:30.537Z,14.87
2023-02-04T23:51:57.606Z,14.67
2023-02-04T23:54:24.711Z,13.47
2023-02-04T23:56:51.992Z,14.27
2023-02-04T23:59:18.955Z,14.20
